Moffett Field, CA

6:24 AM PDT on October 25, 2014 (GMT -0700)
Moffett Federal Air Field | Change Station
CLOSE
Current Station
Airport
Location: Moffett NAS,
Elevation: 39 ft
Nearby Weather Stations

Elev 39 ft 37.41 °N, 122.05 °W | Updated 28 minutes ago

Mostly Cloudy
Mostly Cloudy
63 °F
Feels Like 63 °F
N
10
Wind Variable Wind from SE

Today
High -- | Low -- °F
--% Chance of Precip.
Yesterday
High -- | Low -- °F
Precip. -- in
7:25 AM 6:17 PM
Waxing Crescent, 3% visible
Pressure 29.96 in
Visibility 10.0 miles
Clouds Few 3000 ft
Overcast 4100 ft
Dew Point 59 °F
Humidity 87%
Rainfall 0.00 in
Snow Depth Not available.
UV 0 out of 12
Pollen .10 out of 12
PM2.5 Good
Flu Activity Sporadic
METAR KNUQ 251256Z 14009KT 10SM -RA FEW030 OVC041 17/15 A2995 RMK AO2 RAB22 SLP143 P0000 T01720150

More Conditions Fewer Conditions

Pressure 29.96 in
Visibility 10.0 miles
Clouds Few 3000 ft
Overcast 4100 ft
Dew Point 59 °F
Humidity 87%
Rainfall 0.00 in
Snow Depth Not available.
UV 0 out of 12
Pollen .10 out of 12
PM2.5 Good
Flu Activity Sporadic
METAR KNUQ 251256Z 14009KT 10SM -RA FEW030 OVC041 17/15 A2995 RMK AO2 RAB22 SLP143 P0000 T01720150

More Conditions Fewer Conditions

10-Day Weather Forecast

Almanac

Astronomy

Oct. 25, 2014 Rise Set
Actual Time 7:25 AM PDT 6:17 PM PDT
Civil Twilight 6:59 AM PDT 6:44 PM PDT
Nautical Twilight 6:28 AM PDT 7:15 PM PDT
Astronomical Twilight 5:58 AM PDT 7:45 PM PDT
Moon 9:08 AM PDT 7:47 PM PDT
Length of Visible Light 11h 45m
Length of Day
10h 51m
Tomorrow will be 2m 12s shorter.
Waxing Crescent, 3% of the Moon is Illuminated
Today
Waxing Crescent
Oct 30
First Quarter
Nov 6
Full
Nov 14
Last Quarter
Nov 22
New

Today's Extremes

State Highs State Lows

Community

WunderPhotos

Upload Photos

1,764,829 photos uploaded!

Nearby

Air Quality

  Air Quality AQ Index Pollutant
Yesterday Good
OZONE
Yesterday Good
PM2.5
Current Good
PM2.5
Saturday Good
OZONE
Sunday Good
OZONE
Monday Good
PM2.5
Tuesday Good
PM2.5
Wednesday Moderate
PM2.5

Snow Depth

Station Depth Elevation
Blue Lakes 0 in 8000 ft
Forestdale Creek 0 in 8029 ft
Leavitt Lake 1 in 9400 ft
Echo Peak 1 in 7800 ft
Sonora Pass 0 in 8800 ft

Earthquake Activity

City Distance Mag. Time & Date
Coalinga, California 130 miles 2.5 11:01 PM PDT
2014-10-24
Minimum magnitude displayed is 2.5.

Coastal Water Temperatures

Place Temperature
No Stations Reporting

Nearby Weather Stations